Time;durP1;ratioP1;P1;durP2;ratioP2;P2;SDS_P1;SDS_P2;PMS_P1;PMS_P2;Temp;Humidity;BMP_temperature;BMP_pressure;BME280_temperature;BME280_humidity;BME280_pressure;Samples;Min_cycle;Max_cycle;Signal;HPM_P1;HPM_P2
2020/12/14 00:02:13;;;;;;;49.75;25.52;;;4.70;99.90;;;;;;5050089;28;20033;-47
2020/12/14 00:04:41;;;;;;;58.15;27.30;;;4.70;99.90;;;;;;5048931;28;20025;-47
2020/12/14 00:07:07;;;;;;;56.75;28.73;;;4.70;99.90;;;;;;5048771;28;20033;-49
2020/12/14 00:09:33;;;;;;;56.95;27.73;;;4.70;99.90;;;;;;5049773;28;20028;-47
2020/12/14 00:11:59;;;;;;;54.03;27.75;;;4.70;99.90;;;;;;5049778;28;20032;-50
2020/12/14 00:14:24;;;;;;;53.28;25.48;;;4.70;99.90;;;;;;5049154;28;20027;-47
2020/12/14 00:16:50;;;;;;;50.35;26.15;;;4.70;99.90;;;;;;5049948;28;20025;-48
2020/12/14 00:19:15;;;;;;;54.47;27.00;;;4.70;99.90;;;;;;5049799;28;20131;-48
2020/12/14 00:21:41;;;;;;;50.70;26.35;;;4.70;99.90;;;;;;5049005;28;20025;-47
2020/12/14 00:24:06;;;;;;;52.28;26.48;;;4.80;99.90;;;;;;5048461;28;20079;-47
2020/12/14 00:26:32;;;;;;;47.03;24.02;;;4.80;99.90;;;;;;5049342;28;20029;-47
2020/12/14 00:28:58;;;;;;;45.35;23.15;;;4.80;99.90;;;;;;5049592;28;20036;-50
2020/12/14 00:31:24;;;;;;;42.88;22.27;;;4.80;99.90;;;;;;5049100;28;20551;-46
2020/12/14 00:33:49;;;;;;;44.47;23.05;;;4.90;99.90;;;;;;5049117;28;20029;-46
2020/12/14 00:36:15;;;;;;;40.33;21.58;;;4.90;99.90;;;;;;5048607;28;20029;-47
2020/12/14 00:38:42;;;;;;;42.88;22.13;;;4.90;99.90;;;;;;5049414;28;20029;-49
2020/12/14 00:41:15;;;;;;;36.47;19.63;;;4.90;99.90;;;;;;5049312;28;20025;-50
2020/12/14 00:43:41;;;;;;;35.60;19.45;;;4.90;99.90;;;;;;5049124;28;20521;-52
2020/12/14 00:46:14;;;;;;;37.63;19.67;;;4.90;99.90;;;;;;5047420;28;20116;-48
2020/12/14 00:48:40;;;;;;;33.58;18.23;;;4.90;99.90;;;;;;5048662;28;20044;-48
2020/12/14 00:51:06;;;;;;;40.45;19.50;;;4.90;99.90;;;;;;5037877;28;20033;-47
2020/12/14 00:53:32;;;;;;;36.70;19.52;;;4.80;99.90;;;;;;5028960;28;20394;-47
2020/12/14 00:56:04;;;;;;;39.28;19.58;;;4.80;99.90;;;;;;5028853;28;20425;-46
2020/12/14 00:58:30;;;;;;;35.40;19.80;;;4.80;99.90;;;;;;5029429;28;20079;-47
2020/12/14 01:00:56;;;;;;;35.28;18.35;;;4.80;99.90;;;;;;5027610;28;20522;-46
2020/12/14 01:03:23;;;;;;;32.85;18.67;;;4.90;99.90;;;;;;5028708;28;20043;-47
2020/12/14 01:05:52;;;;;;;33.88;19.20;;;4.90;99.90;;;;;;5027764;28;20487;-49
2020/12/14 01:08:21;;;;;;;32.38;17.75;;;4.90;99.90;;;;;;5028727;28;20029;-48
2020/12/14 01:10:47;;;;;;;29.90;17.58;;;4.90;99.90;;;;;;5027381;28;20049;-47
2020/12/14 01:13:12;;;;;;;28.10;16.52;;;4.90;99.90;;;;;;5028443;28;20079;-49
2020/12/14 01:15:38;;;;;;;28.40;16.27;;;4.90;99.90;;;;;;5027788;28;20025;-46
2020/12/14 01:18:03;;;;;;;27.67;15.68;;;5.00;99.90;;;;;;5028665;28;20025;-46
2020/12/14 01:20:29;;;;;;;26.63;15.82;;;5.00;99.90;;;;;;5028154;28;20028;-47
2020/12/14 01:22:54;;;;;;;32.53;16.75;;;5.00;99.90;;;;;;5028508;28;20067;-46
2020/12/14 01:25:20;;;;;;;30.70;16.52;;;5.00;99.90;;;;;;5027769;28;20064;-46
2020/12/14 01:27:45;;;;;;;32.35;17.48;;;4.90;99.90;;;;;;5028876;28;20052;-46
2020/12/14 01:30:11;;;;;;;30.80;17.52;;;4.90;99.90;;;;;;5028366;28;20502;-45
2020/12/14 01:32:36;;;;;;;29.17;17.50;;;4.90;99.90;;;;;;5027920;28;20029;-44
2020/12/14 01:35:02;;;;;;;28.27;16.67;;;4.90;99.90;;;;;;5027228;28;20021;-45
2020/12/14 01:37:28;;;;;;;27.48;17.13;;;4.90;99.90;;;;;;5028288;28;20086;-46
2020/12/14 01:39:53;;;;;;;30.45;15.88;;;5.00;99.90;;;;;;5027001;28;20069;-44
2020/12/14 01:42:22;;;;;;;29.67;17.15;;;4.90;99.90;;;;;;5028123;28;20037;-47
2020/12/14 01:44:51;;;;;;;29.25;17.08;;;4.90;99.90;;;;;;5027544;28;20025;-45
2020/12/14 01:47:29;;;;;;;29.60;17.33;;;4.90;99.90;;;;;;5028200;28;20518;-46
2020/12/14 01:49:55;;;;;;;29.13;16.92;;;4.90;99.90;;;;;;5027803;28;20097;-45
2020/12/14 01:52:21;;;;;;;27.48;17.13;;;5.00;99.90;;;;;;5039153;28;20346;-45
2020/12/14 01:54:48;;;;;;;25.23;16.05;;;4.90;99.90;;;;;;5047267;28;20025;-44
2020/12/14 01:57:14;;;;;;;25.60;15.50;;;4.90;99.90;;;;;;5048573;28;20076;-44
2020/12/14 01:59:39;;;;;;;28.83;16.48;;;4.90;99.90;;;;;;5047851;28;20029;-44
2020/12/14 02:02:05;;;;;;;28.15;16.13;;;4.90;99.90;;;;;;5047820;28;20028;-46
2020/12/14 02:04:30;;;;;;;26.15;16.08;;;4.90;99.90;;;;;;5046380;28;20395;-46
2020/12/14 02:06:56;;;;;;;26.15;15.77;;;4.90;99.90;;;;;;5047813;28;20046;-45
2020/12/14 02:09:21;;;;;;;28.25;16.83;;;4.90;99.90;;;;;;5047485;28;20147;-45
2020/12/14 02:11:47;;;;;;;28.92;15.82;;;4.80;99.90;;;;;;5047599;28;20028;-45
2020/12/14 02:14:12;;;;;;;26.05;16.33;;;4.90;99.90;;;;;;5047784;28;20552;-45
2020/12/14 02:16:38;;;;;;;23.73;15.50;;;4.90;99.90;;;;;;5047180;28;20567;-45
2020/12/14 02:19:03;;;;;;;26.27;15.93;;;5.00;99.90;;;;;;5046525;28;20025;-46
2020/12/14 02:21:29;;;;;;;26.15;16.42;;;4.90;99.90;;;;;;5046911;28;20124;-48
2020/12/14 02:23:54;;;;;;;25.35;15.63;;;4.90;99.90;;;;;;5047492;28;20029;-45
2020/12/14 02:26:20;;;;;;;25.33;14.80;;;4.90;99.90;;;;;;5047007;28;20033;-46
2020/12/14 02:28:45;;;;;;;26.33;14.43;;;4.90;99.90;;;;;;5047713;28;20033;-45
2020/12/14 02:31:11;;;;;;;31.77;15.60;;;4.90;99.90;;;;;;5047309;28;20098;-45
2020/12/14 02:33:36;;;;;;;26.88;15.80;;;4.80;99.90;;;;;;5045686;28;20422;-46
2020/12/14 02:36:02;;;;;;;26.40;15.98;;;4.80;99.90;;;;;;5046663;28;20021;-46
2020/12/14 02:38:27;;;;;;;23.65;14.18;;;4.80;99.90;;;;;;5047474;28;20025;-45
2020/12/14 02:40:53;;;;;;;20.30;13.52;;;4.80;99.90;;;;;;5047464;28;20032;-46
2020/12/14 02:43:18;;;;;;;21.00;14.75;;;4.80;99.90;;;;;;5047224;28;20083;-46
2020/12/14 02:45:44;;;;;;;25.13;14.93;;;4.70;99.90;;;;;;5046629;28;20675;-46
2020/12/14 02:48:09;;;;;;;21.98;14.48;;;4.70;99.90;;;;;;5047444;28;20107;-46
2020/12/14 02:50:35;;;;;;;25.67;13.95;;;4.80;99.90;;;;;;5046846;28;20509;-46
2020/12/14 02:53:02;;;;;;;21.63;14.50;;;4.80;99.90;;;;;;5038166;28;20017;-46
2020/12/14 02:55:28;;;;;;;25.17;14.20;;;4.70;99.90;;;;;;5046248;28;20506;-46
2020/12/14 02:57:53;;;;;;;21.33;13.70;;;4.70;99.90;;;;;;5047355;28;20088;-47
2020/12/14 03:00:20;;;;;;;21.23;13.15;;;4.70;99.90;;;;;;5047006;28;20025;-46
2020/12/14 03:02:46;;;;;;;19.83;12.68;;;4.60;99.90;;;;;;5047309;28;20033;-46
2020/12/14 03:05:11;;;;;;;20.30;13.20;;;4.60;99.90;;;;;;5046303;28;20103;-46
2020/12/14 03:07:37;;;;;;;23.17;14.23;;;4.60;99.90;;;;;;5047136;28;20041;-46
2020/12/14 03:10:03;;;;;;;21.67;13.80;;;4.50;99.90;;;;;;5046918;28;20474;-46
2020/12/14 03:12:32;;;;;;;23.88;13.88;;;4.50;99.90;;;;;;5046825;28;20047;-47
2020/12/14 03:14:58;;;;;;;23.45;13.77;;;4.50;99.90;;;;;;5048179;28;20020;-47
2020/12/14 03:17:23;;;;;;;21.60;13.55;;;4.40;99.90;;;;;;5050914;28;20364;-49
2020/12/14 03:19:49;;;;;;;23.20;13.20;;;4.40;99.90;;;;;;5051070;28;20032;-46
2020/12/14 03:22:14;;;;;;;24.20;13.40;;;4.30;99.90;;;;;;5048995;28;20201;-47
2020/12/14 03:24:40;;;;;;;24.20;13.93;;;4.30;99.90;;;;;;5049955;28;20490;-48
2020/12/14 03:27:05;;;;;;;19.65;12.35;;;4.30;99.90;;;;;;5051466;28;20517;-46
2020/12/14 03:29:31;;;;;;;21.83;13.55;;;4.30;99.90;;;;;;5050656;28;20033;-46
2020/12/14 03:31:56;;;;;;;19.98;13.02;;;4.20;99.90;;;;;;5050231;28;20013;-48
2020/12/14 03:34:22;;;;;;;18.45;12.10;;;4.30;99.90;;;;;;5049096;28;20087;-46
2020/12/14 03:36:47;;;;;;;19.10;11.50;;;4.30;99.90;;;;;;5049885;28;20032;-46
2020/12/14 03:39:12;;;;;;;18.20;11.52;;;4.30;99.90;;;;;;5050474;28;20031;-45
2020/12/14 03:41:38;;;;;;;19.83;11.27;;;4.30;99.90;;;;;;5049867;28;20060;-46
2020/12/14 03:44:03;;;;;;;19.10;11.85;;;4.40;99.90;;;;;;5049974;28;20086;-47
2020/12/14 03:46:35;;;;;;;16.40;10.95;;;4.40;99.90;;;;;;5049617;28;20187;-46
2020/12/14 03:49:00;;;;;;;20.00;11.63;;;4.30;99.90;;;;;;5050394;28;20440;-45
2020/12/14 03:51:27;;;;;;;18.05;10.88;;;4.30;99.90;;;;;;5048038;28;20025;-47
2020/12/14 03:53:52;;;;;;;17.83;11.90;;;4.30;99.90;;;;;;5042531;28;20179;-45
2020/12/14 03:56:22;;;;;;;16.30;10.98;;;4.30;99.90;;;;;;5030177;28;20327;-46
2020/12/14 03:58:48;;;;;;;19.90;11.27;;;4.40;99.90;;;;;;5030572;28;20029;-46
2020/12/14 04:01:22;;;;;;;18.77;10.90;;;4.40;99.90;;;;;;5030175;28;20033;-48
2020/12/14 04:03:48;;;;;;;16.45;10.38;;;4.40;99.90;;;;;;5030004;28;20276;-45
2020/12/14 04:06:17;;;;;;;17.63;10.95;;;4.50;99.90;;;;;;5027891;28;20025;-47
2020/12/14 04:08:43;;;;;;;18.13;11.07;;;4.50;99.90;;;;;;5029904;28;20082;-48
2020/12/14 04:11:09;;;;;;;16.85;11.52;;;4.60;99.90;;;;;;5038692;28;20021;-48
2020/12/14 04:13:34;;;;;;;16.35;9.88;;;4.60;99.90;;;;;;5036811;28;20060;-45
2020/12/14 04:16:00;;;;;;;15.90;10.40;;;4.60;99.90;;;;;;5038784;28;20219;-49
2020/12/14 04:18:25;;;;;;;18.20;9.98;;;4.50;99.90;;;;;;5037748;28;20040;-50
2020/12/14 04:20:51;;;;;;;17.75;10.73;;;4.60;99.90;;;;;;5040138;28;20033;-47
2020/12/14 04:23:16;;;;;;;15.63;9.57;;;4.60;99.90;;;;;;5038642;28;20026;-47
2020/12/14 04:25:43;;;;;;;14.73;10.25;;;4.60;99.90;;;;;;5037638;28;20501;-48
2020/12/14 04:28:08;;;;;;;13.40;9.32;;;4.70;99.90;;;;;;5039821;28;20017;-48
2020/12/14 04:30:34;;;;;;;14.00;9.20;;;4.80;99.90;;;;;;5038079;28;20033;-49
2020/12/14 04:33:00;;;;;;;16.73;9.52;;;4.90;99.90;;;;;;5038587;28;20044;-49
2020/12/14 04:35:26;;;;;;;15.10;10.02;;;4.80;99.90;;;;;;5044709;28;20478;-48
2020/12/14 04:37:52;;;;;;;15.80;9.63;;;4.90;99.90;;;;;;5048232;28;20247;-47
2020/12/14 04:40:19;;;;;;;13.85;9.35;;;4.90;99.90;;;;;;5049452;28;20513;-46
2020/12/14 04:42:45;;;;;;;16.77;10.32;;;5.00;99.90;;;;;;5049497;28;20112;-48
2020/12/14 04:45:11;;;;;;;17.88;10.30;;;4.90;99.90;;;;;;5048720;28;20021;-46
2020/12/14 04:47:38;;;;;;;14.85;9.45;;;4.90;99.90;;;;;;5040691;28;20033;-47
2020/12/14 04:50:04;;;;;;;15.57;9.77;;;4.90;99.90;;;;;;5029171;28;20034;-48
2020/12/14 04:52:34;;;;;;;16.17;10.05;;;4.80;99.90;;;;;;5030320;28;20080;-47
2020/12/14 04:55:02;;;;;;;14.30;9.77;;;4.80;99.90;;;;;;5037195;28;20021;-46
2020/12/14 04:57:31;;;;;;;16.38;10.40;;;4.80;99.90;;;;;;5038306;28;20095;-46
2020/12/14 04:59:57;;;;;;;14.82;9.40;;;4.80;99.90;;;;;;5037441;28;20022;-49
2020/12/14 05:02:22;;;;;;;15.55;10.32;;;4.80;99.90;;;;;;5039013;28;20048;-47
2020/12/14 05:04:48;;;;;;;14.23;9.27;;;4.80;99.90;;;;;;5038698;28;20100;-45
2020/12/14 05:07:15;;;;;;;13.23;8.95;;;4.80;99.90;;;;;;5045196;28;20031;-45
2020/12/14 05:09:41;;;;;;;16.35;9.77;;;4.80;99.90;;;;;;5048763;28;20032;-46
2020/12/14 05:12:17;;;;;;;12.98;9.23;;;4.70;99.90;;;;;;5048271;28;20644;-46
2020/12/14 05:14:43;;;;;;;14.15;8.52;;;4.80;99.90;;;;;;5047682;28;20220;-49
2020/12/14 05:17:21;;;;;;;13.55;9.10;;;4.80;99.90;;;;;;5045517;28;20035;-47
2020/12/14 05:19:46;;;;;;;12.30;7.95;;;4.80;99.90;;;;;;5028769;28;20494;-49
2020/12/14 05:22:15;;;;;;;15.18;8.30;;;4.80;99.90;;;;;;5028366;28;20064;-49
2020/12/14 05:24:47;;;;;;;11.55;8.40;;;4.90;99.90;;;;;;5027665;28;20063;-50
2020/12/14 05:27:34;;;;;;;14.35;7.78;;;5.00;99.90;;;;;;5028621;28;20037;-49
2020/12/14 05:30:11;;;;;;;12.02;8.18;;;4.90;99.90;;;;;;5028358;28;20025;-49
2020/12/14 05:32:37;;;;;;;12.13;7.65;;;4.90;99.90;;;;;;5038991;28;20021;-47
2020/12/14 05:35:09;;;;;;;11.32;7.45;;;5.00;99.90;;;;;;5036380;28;20020;-47
2020/12/14 05:37:35;;;;;;;12.50;8.85;;;5.00;99.90;;;;;;5037434;28;20045;-47
2020/12/14 05:40:10;;;;;;;13.40;8.48;;;5.00;99.90;;;;;;5038031;28;20029;-47
2020/12/14 05:42:41;;;;;;;14.45;8.57;;;4.90;99.90;;;;;;5031839;28;20459;-46
2020/12/14 05:45:11;;;;;;;12.38;8.20;;;4.90;99.90;;;;;;5039552;28;20099;-46
2020/12/14 05:47:42;;;;;;;13.60;8.75;;;4.90;99.90;;;;;;5035209;28;20079;-47
2020/12/14 05:50:10;;;;;;;14.80;9.38;;;4.80;99.90;;;;;;5038524;28;20574;-47
2020/12/14 05:52:46;;;;;;;12.40;8.25;;;4.90;99.90;;;;;;5035968;28;20059;-47
2020/12/14 05:55:16;;;;;;;13.93;9.13;;;4.90;99.90;;;;;;5032050;28;20019;-47
2020/12/14 05:57:49;;;;;;;12.90;7.80;;;4.90;99.90;;;;;;5032288;28;20108;-46
2020/12/14 06:00:17;;;;;;;11.63;7.72;;;4.90;99.90;;;;;;5037649;28;20109;-46
2020/12/14 06:02:43;;;;;;;8.93;6.72;;;5.00;99.90;;;;;;5036640;28;20035;-46
2020/12/14 06:05:09;;;;;;;11.40;7.63;;;5.00;99.90;;;;;;5037820;28;20506;-46
2020/12/14 06:07:41;;;;;;;10.70;7.70;;;5.10;99.90;;;;;;5036809;28;20498;-42
2020/12/14 06:10:15;;;;;;;11.48;8.45;;;5.10;99.90;;;;;;5036540;28;20356;-44
2020/12/14 06:12:42;;;;;;;10.70;7.53;;;5.00;99.90;;;;;;5036760;28;20432;-46
2020/12/14 06:15:09;;;;;;;12.13;8.02;;;5.10;99.90;;;;;;5038100;28;20066;-54
2020/12/14 06:17:35;;;;;;;11.13;7.55;;;5.10;99.90;;;;;;5035392;28;20032;-45
2020/12/14 06:20:09;;;;;;;11.25;7.05;;;5.10;99.90;;;;;;5037733;28;20087;-44
2020/12/14 06:22:37;;;;;;;11.40;7.95;;;5.20;99.90;;;;;;5038363;28;20049;-46
2020/12/14 06:25:03;;;;;;;10.35;7.10;;;5.20;99.90;;;;;;5037948;28;20013;-46
2020/12/14 06:27:30;;;;;;;9.88;6.63;;;5.20;99.90;;;;;;5040075;28;20029;-46
2020/12/14 06:29:56;;;;;;;9.98;7.35;;;5.20;99.90;;;;;;5038279;28;20018;-46
2020/12/14 06:32:41;;;;;;;10.35;7.25;;;5.20;99.90;;;;;;5037163;28;20049;-47
2020/12/14 06:35:14;;;;;;;9.07;6.72;;;5.20;99.90;;;;;;5038970;28;20013;-47
2020/12/14 06:37:55;;;;;;;11.07;7.60;;;5.30;99.90;;;;;;5045609;28;20031;-47
2020/12/14 06:40:20;;;;;;;7.80;6.20;;;5.30;99.90;;;;;;5036285;28;20029;-47
2020/12/14 06:42:47;;;;;;;10.73;6.47;;;5.30;99.90;;;;;;5046383;28;20499;-47
2020/12/14 06:45:14;;;;;;;9.48;6.82;;;5.30;99.90;;;;;;5036802;28;20639;-47
2020/12/14 06:47:48;;;;;;;10.75;6.72;;;5.30;99.90;;;;;;5037746;28;20470;-48
2020/12/14 06:50:30;;;;;;;9.35;6.35;;;5.40;99.90;;;;;;5039596;28;20065;-47
2020/12/14 06:52:57;;;;;;;8.40;5.60;;;5.40;99.90;;;;;;5042871;28;20018;-47
2020/12/14 06:55:41;;;;;;;7.25;5.88;;;5.40;99.90;;;;;;5040966;28;20474;-47
2020/12/14 06:58:31;;;;;;;8.75;5.65;;;5.40;99.90;;;;;;5039796;28;20036;-47
2020/12/14 07:00:58;;;;;;;9.27;6.47;;;5.40;99.90;;;;;;5043733;28;20608;-47
2020/12/14 07:03:37;;;;;;;7.22;5.68;;;5.40;99.90;;;;;;5047730;28;20025;-50
2020/12/14 07:06:06;;;;;;;8.20;6.03;;;5.40;99.90;;;;;;5032659;28;20032;-51
2020/12/14 07:08:37;;;;;;;11.95;6.53;;;5.40;99.90;;;;;;5032920;28;20044;-51
2020/12/14 07:11:17;;;;;;;8.98;6.05;;;5.40;99.90;;;;;;5032850;28;20478;-49
2020/12/14 07:13:44;;;;;;;8.43;6.20;;;5.40;99.90;;;;;;5032439;28;20022;-48
2020/12/14 07:16:11;;;;;;;7.05;4.97;;;5.40;99.90;;;;;;5034008;28;20384;-51
2020/12/14 07:18:38;;;;;;;7.95;5.82;;;5.50;99.90;;;;;;5031565;28;20479;-45
2020/12/14 07:21:13;;;;;;;7.35;5.55;;;5.50;99.90;;;;;;5032707;28;20026;-45
2020/12/14 07:23:45;;;;;;;7.65;5.72;;;5.60;99.90;;;;;;5032330;28;20395;-46
2020/12/14 07:26:15;;;;;;;7.63;5.22;;;5.60;99.90;;;;;;5036086;28;20384;-45
2020/12/14 07:28:49;;;;;;;7.00;5.60;;;5.60;99.90;;;;;;5040426;28;20394;-46
2020/12/14 07:31:17;;;;;;;9.13;5.53;;;5.70;99.90;;;;;;5042154;28;20022;-46
2020/12/14 07:33:57;;;;;;;8.65;5.82;;;5.70;99.90;;;;;;5039907;28;20010;-45
2020/12/14 07:36:24;;;;;;;8.07;4.87;;;5.70;99.90;;;;;;5039764;28;20021;-45
2020/12/14 07:38:56;;;;;;;7.47;5.40;;;5.60;99.90;;;;;;5041911;28;20394;-47
2020/12/14 07:41:23;;;;;;;6.90;5.22;;;5.60;99.90;;;;;;5042640;28;20553;-45
2020/12/14 07:43:53;;;;;;;6.70;4.93;;;5.60;99.90;;;;;;5041070;28;20017;-46
2020/12/14 07:46:25;;;;;;;5.75;4.38;;;5.60;99.90;;;;;;5040123;28;20040;-46
2020/12/14 07:48:52;;;;;;;7.50;4.75;;;5.60;99.90;;;;;;5040219;28;20498;-47
2020/12/14 07:51:18;;;;;;;7.10;4.93;;;5.70;99.90;;;;;;5042248;28;20017;-49
2020/12/14 07:53:44;;;;;;;5.57;4.20;;;5.70;99.90;;;;;;5051577;28;20462;-47
2020/12/14 07:56:10;;;;;;;7.35;5.47;;;5.70;99.90;;;;;;5051746;28;20017;-46
2020/12/14 07:58:44;;;;;;;6.85;4.57;;;5.80;99.90;;;;;;5042398;28;20037;-47
2020/12/14 08:01:14;;;;;;;6.97;5.05;;;5.80;99.90;;;;;;5050585;28;20574;-49
2020/12/14 08:03:39;;;;;;;6.72;4.93;;;5.80;99.90;;;;;;5051573;28;20037;-48
2020/12/14 08:06:16;;;;;;;8.27;5.13;;;5.80;99.90;;;;;;5050985;28;20039;-47
2020/12/14 08:08:47;;;;;;;7.88;5.50;;;5.80;99.90;;;;;;5051308;28;20036;-47
2020/12/14 08:11:14;;;;;;;6.80;4.60;;;5.90;99.90;;;;;;5051457;28;20017;-48
2020/12/14 08:13:43;;;;;;;6.43;4.88;;;5.80;99.90;;;;;;5051062;28;20048;-48
2020/12/14 08:16:16;;;;;;;7.70;5.20;;;5.90;99.90;;;;;;5051078;28;20475;-46
2020/12/14 08:18:43;;;;;;;8.05;5.80;;;5.90;99.90;;;;;;5051880;28;20057;-47
2020/12/14 08:21:08;;;;;;;9.13;5.25;;;5.90;99.90;;;;;;5051526;28;20529;-49
2020/12/14 08:23:34;;;;;;;7.60;4.68;;;6.00;99.90;;;;;;5051015;28;20120;-48
2020/12/14 08:26:00;;;;;;;8.77;5.43;;;6.00;99.90;;;;;;5050846;28;20371;-45
2020/12/14 08:28:34;;;;;;;7.07;5.10;;;6.00;99.90;;;;;;5051263;28;20025;-46
2020/12/14 08:31:03;;;;;;;8.02;4.72;;;6.10;99.90;;;;;;5051254;28;20021;-46
2020/12/14 08:33:30;;;;;;;6.05;4.25;;;6.10;99.90;;;;;;5050567;28;20021;-47
2020/12/14 08:35:56;;;;;;;6.85;4.78;;;6.20;99.90;;;;;;5048969;28;20025;-49
2020/12/14 08:38:23;;;;;;;7.28;4.68;;;6.20;99.90;;;;;;5050956;28;20108;-46
2020/12/14 08:41:01;;;;;;;7.35;4.57;;;6.30;99.90;;;;;;5051193;28;20029;-47
2020/12/14 08:43:29;;;;;;;5.55;4.13;;;6.40;99.90;;;;;;5050717;28;20052;-47
2020/12/14 08:46:05;;;;;;;5.25;3.90;;;6.40;99.90;;;;;;5050443;28;20025;-47
2020/12/14 08:48:39;;;;;;;7.70;4.18;;;6.60;99.90;;;;;;5050996;28;20032;-46
2020/12/14 08:51:09;;;;;;;7.75;4.22;;;6.60;99.90;;;;;;5049829;28;20120;-47
2020/12/14 08:53:36;;;;;;;4.63;3.77;;;6.70;99.90;;;;;;5050189;28;20621;-46
2020/12/14 08:56:06;;;;;;;5.10;4.30;;;6.70;99.90;;;;;;5050072;28;20082;-46
2020/12/14 08:58:32;;;;;;;6.20;4.38;;;6.70;99.90;;;;;;5046175;28;20068;-47
2020/12/14 09:01:09;;;;;;;4.38;3.55;;;6.80;99.90;;;;;;5042178;28;20116;-47
2020/12/14 09:03:57;;;;;;;5.75;3.97;;;6.80;99.90;;;;;;5050355;28;20033;-47
2020/12/14 09:06:37;;;;;;;4.80;4.07;;;6.90;99.90;;;;;;5049769;28;20013;-47
2020/12/14 09:09:07;;;;;;;5.93;4.50;;;7.00;99.90;;;;;;5050740;28;20423;-48
2020/12/14 09:11:55;;;;;;;6.47;4.07;;;7.00;99.90;;;;;;5049445;28;20024;-47
2020/12/14 09:14:22;;;;;;;6.30;3.75;;;7.10;99.90;;;;;;5038468;28;20132;-49
2020/12/14 09:16:49;;;;;;;5.25;3.72;;;7.10;99.90;;;;;;5038112;28;20500;-46
2020/12/14 09:19:29;;;;;;;4.60;3.58;;;7.20;99.90;;;;;;5041166;28;20032;-46
2020/12/14 09:21:56;;;;;;;6.18;3.80;;;7.10;99.90;;;;;;5038039;28;20028;-47
2020/12/14 09:24:26;;;;;;;5.20;3.70;;;7.20;99.90;;;;;;5029649;28;20065;-47
2020/12/14 09:26:53;;;;;;;5.05;4.18;;;7.30;99.90;;;;;;5029011;28;20026;-46
2020/12/14 09:29:19;;;;;;;6.55;4.25;;;7.30;99.90;;;;;;5032937;28;20030;-47
2020/12/14 09:31:49;;;;;;;8.00;4.20;;;7.40;99.90;;;;;;5030054;28;20029;-47
2020/12/14 09:34:14;;;;;;;5.05;3.85;;;7.50;99.90;;;;;;5029874;28;20036;-46
2020/12/14 09:36:40;;;;;;;6.28;3.90;;;7.50;99.90;;;;;;5029384;28;20438;-46
2020/12/14 09:39:05;;;;;;;4.75;3.58;;;7.70;99.90;;;;;;5037664;28;20079;-48
2020/12/14 09:41:32;;;;;;;4.82;3.60;;;7.80;99.90;;;;;;5043075;28;20044;-47
2020/12/14 09:43:58;;;;;;;4.40;3.47;;;8.00;99.90;;;;;;5049672;28;20619;-50
2020/12/14 09:46:25;;;;;;;4.22;3.50;;;8.20;99.90;;;;;;5049497;28;20052;-47
2020/12/14 09:48:51;;;;;;;5.85;3.50;;;8.40;99.90;;;;;;5049707;28;20029;-46
2020/12/14 09:51:17;;;;;;;3.65;3.17;;;8.70;99.90;;;;;;5042840;28;20096;-49
2020/12/14 09:53:42;;;;;;;6.90;3.50;;;9.00;99.90;;;;;;5034086;28;20117;-49
2020/12/14 09:56:08;;;;;;;5.55;3.05;;;9.10;99.90;;;;;;5029492;28;20022;-47
2020/12/14 09:58:33;;;;;;;4.55;3.00;;;9.20;99.90;;;;;;5028292;28;20013;-46
2020/12/14 10:01:00;;;;;;;6.00;3.92;;;9.20;99.90;;;;;;5040100;28;20047;-47
2020/12/14 10:03:25;;;;;;;4.03;2.67;;;9.30;99.90;;;;;;5030246;28;20544;-47
2020/12/14 10:05:50;;;;;;;7.40;2.70;;;9.10;99.90;;;;;;5029238;28;20025;-46
2020/12/14 10:08:16;;;;;;;5.10;2.65;;;9.10;99.90;;;;;;5044886;28;20123;-48
2020/12/14 10:10:43;;;;;;;4.60;2.65;;;9.10;99.90;;;;;;5029896;28;20474;-48
2020/12/14 10:13:08;;;;;;;4.60;2.35;;;9.10;99.90;;;;;;5029429;28;20100;-49
2020/12/14 10:15:34;;;;;;;3.35;2.63;;;9.10;99.90;;;;;;5028763;28;20105;-46
2020/12/14 10:18:00;;;;;;;2.63;2.15;;;9.30;99.90;;;;;;5045167;28;20580;-49
2020/12/14 10:20:27;;;;;;;5.30;2.60;;;9.30;99.90;;;;;;5029902;28;20516;-47
2020/12/14 10:22:53;;;;;;;5.00;2.53;;;9.30;99.90;;;;;;5029642;28;20094;-49
2020/12/14 10:25:19;;;;;;;3.38;2.60;;;9.30;99.90;;;;;;5043478;28;20474;-47
2020/12/14 10:27:44;;;;;;;3.67;2.40;;;9.20;99.90;;;;;;5029563;28;20539;-48
2020/12/14 10:30:10;;;;;;;3.70;2.28;;;9.20;99.90;;;;;;5046121;28;20525;-47
2020/12/14 10:32:35;;;;;;;4.65;2.60;;;9.30;99.90;;;;;;5049396;28;20029;-48
2020/12/14 10:35:01;;;;;;;3.00;2.13;;;9.30;99.90;;;;;;5048759;28;20029;-48
2020/12/14 10:37:26;;;;;;;2.80;2.00;;;9.30;99.90;;;;;;5049007;28;20514;-47
2020/12/14 10:39:52;;;;;;;2.95;2.20;;;9.40;99.90;;;;;;5049470;28;20029;-46
2020/12/14 10:42:17;;;;;;;4.03;2.20;;;9.40;99.90;;;;;;5049382;28;20025;-48
2020/12/14 10:44:43;;;;;;;4.22;2.22;;;9.70;99.90;;;;;;5048385;28;20025;-46
2020/12/14 10:47:08;;;;;;;10.93;2.38;;;9.80;99.90;;;;;;5049246;28;20106;-48
2020/12/14 10:49:34;;;;;;;3.28;1.80;;;9.70;99.90;;;;;;5049034;28;20032;-47
2020/12/14 10:52:03;;;;;;;3.60;2.00;;;9.70;99.90;;;;;;5048761;28;20071;-47
2020/12/14 10:54:29;;;;;;;2.45;1.65;;;9.70;99.90;;;;;;5048184;28;20475;-46
2020/12/14 10:56:54;;;;;;;4.75;2.15;;;9.70;99.90;;;;;;5049248;28;20021;-46
2020/12/14 10:59:20;;;;;;;4.13;1.85;;;9.70;99.90;;;;;;5049229;28;20116;-47
2020/12/14 11:01:52;;;;;;;61.65;36.70;;;9.80;99.90;;;;;;5042673;28;20441;-47
2020/12/14 11:04:17;;;;;;;44.58;27.90;;;9.80;99.90;;;;;;5038403;28;20815;-46
2020/12/14 11:06:43;;;;;;;6.38;3.97;;;9.70;99.90;;;;;;5047327;28;20125;-46
2020/12/14 11:09:09;;;;;;;3.10;2.08;;;9.70;99.90;;;;;;5049084;28;20068;-48
2020/12/14 11:11:35;;;;;;;3.25;2.05;;;9.60;99.90;;;;;;5048315;28;20051;-49
2020/12/14 11:14:01;;;;;;;4.40;2.05;;;9.60;99.90;;;;;;5048733;28;20136;-49
2020/12/14 11:16:27;;;;;;;6.20;1.92;;;9.60;99.90;;;;;;5048412;28;20013;-49
2020/12/14 11:18:54;;;;;;;6.80;1.88;;;9.70;99.90;;;;;;5049373;28;20021;-48
2020/12/14 11:21:20;;;;;;;4.88;1.42;;;9.70;99.90;;;;;;5048329;28;20449;-49
2020/12/14 11:23:47;;;;;;;4.65;1.75;;;9.70;99.90;;;;;;5042116;28;20032;-49
2020/12/14 11:26:13;;;;;;;1.83;1.45;;;9.70;99.90;;;;;;5044614;28;20775;-46
2020/12/14 11:28:39;;;;;;;2.80;1.70;;;9.80;99.90;;;;;;5036401;28;20039;-46
2020/12/14 11:31:06;;;;;;;2.67;1.60;;;9.80;99.90;;;;;;5034675;28;20029;-48
2020/12/14 11:33:32;;;;;;;3.55;1.58;;;10.00;99.90;;;;;;5037935;28;20064;-49
2020/12/14 11:35:59;;;;;;;4.45;1.35;;;10.00;99.90;;;;;;5038886;28;20055;-46
2020/12/14 11:38:24;;;;;;;3.42;1.30;;;10.10;99.90;;;;;;5040789;28;20465;-47
2020/12/14 11:40:50;;;;;;;4.63;1.92;;;10.20;99.90;;;;;;5040671;28;20029;-46
2020/12/14 11:43:15;;;;;;;2.28;1.40;;;10.20;99.90;;;;;;5041628;28;20045;-46
2020/12/14 11:45:41;;;;;;;3.58;1.50;;;10.20;99.90;;;;;;5041188;28;20173;-48
2020/12/14 11:48:06;;;;;;;2.38;1.40;;;10.10;99.90;;;;;;5040193;28;20052;-47
2020/12/14 11:50:32;;;;;;;5.60;1.35;;;10.10;99.90;;;;;;5041954;28;20021;-47
2020/12/14 11:52:58;;;;;;;2.45;1.83;;;10.10;99.90;;;;;;5041507;28;20017;-45
2020/12/14 11:55:23;;;;;;;3.50;1.42;;;10.10;99.90;;;;;;5039031;28;20026;-46
2020/12/14 11:57:49;;;;;;;3.85;1.35;;;10.00;99.90;;;;;;5040388;28;20472;-46
2020/12/14 12:00:14;;;;;;;2.47;1.42;;;10.00;99.90;;;;;;5042496;28;20048;-46
2020/12/14 12:02:40;;;;;;;3.72;1.42;;;10.00;99.90;;;;;;5038601;28;20033;-47
2020/12/14 12:05:05;;;;;;;5.13;1.63;;;10.10;99.90;;;;;;5040788;28;20029;-47
2020/12/14 12:07:31;;;;;;;1.63;1.08;;;9.90;99.90;;;;;;5041241;28;20021;-46
2020/12/14 12:09:56;;;;;;;4.60;1.27;;;9.80;99.90;;;;;;5040894;28;20026;-47
2020/12/14 12:12:22;;;;;;;1.50;0.88;;;9.80;99.90;;;;;;5040320;28;20482;-46
2020/12/14 12:14:48;;;;;;;2.17;1.30;;;9.80;99.90;;;;;;5040774;28;20021;-47
2020/12/14 12:17:14;;;;;;;2.72;1.17;;;9.70;99.90;;;;;;5040603;28;20471;-49
2020/12/14 12:19:39;;;;;;;1.90;1.13;;;9.70;99.90;;;;;;5040257;28;20697;-49
2020/12/14 12:22:05;;;;;;;2.17;1.05;;;9.60;99.90;;;;;;5041634;28;20025;-47
2020/12/14 12:24:30;;;;;;;2.13;1.15;;;9.60;99.90;;;;;;5037674;28;20022;-47
2020/12/14 12:26:56;;;;;;;1.92;1.15;;;9.60;99.90;;;;;;5039698;28;20108;-49
2020/12/14 12:29:21;;;;;;;3.70;1.10;;;9.70;99.90;;;;;;5041251;28;20033;-46
2020/12/14 12:31:51;;;;;;;2.10;1.17;;;9.60;99.90;;;;;;5041553;28;20048;-47
2020/12/14 12:34:16;;;;;;;1.63;0.95;;;9.60;99.90;;;;;;5039070;28;20454;-48
2020/12/14 12:37:02;;;;;;;1.38;0.80;;;9.60;99.90;;;;;;5038781;28;20025;-46
2020/12/14 12:39:29;;;;;;;3.28;0.85;;;9.50;99.90;;;;;;5038784;28;20040;-47
2020/12/14 12:41:56;;;;;;;1.10;1.00;;;9.40;99.90;;;;;;5038654;28;20120;-49
2020/12/14 12:44:22;;;;;;;1.45;1.17;;;9.40;99.90;;;;;;5035653;28;20574;-47
2020/12/14 12:46:48;;;;;;;3.25;1.30;;;9.40;99.90;;;;;;5040854;28;20021;-47
2020/12/14 12:49:13;;;;;;;1.48;1.00;;;9.40;99.90;;;;;;5039610;28;20032;-49
2020/12/14 12:51:50;;;;;;;2.15;1.00;;;9.40;99.90;;;;;;5040118;28;20030;-45